Time;durP1;ratioP1;P1;durP2;ratioP2;P2;SDS_P1;SDS_P2;PMS_P1;PMS_P2;Temp;Humidity;BMP_temperature;BMP_pressure;BME280_temperature;BME280_humidity;BME280_pressure;Samples;Min_cycle;Max_cycle;Signal;HPM_P1;HPM_P2
2022/05/18 00:01:56;;;;;;;;;;;;;;;;;;5127596;28;19926;-67
2022/05/18 00:04:22;;;;;;;;;;;;;;;;;;5127482;28;19926;-68
2022/05/18 00:06:48;;;;;;;;;;;;;;;;;;5127418;28;19920;-68
2022/05/18 00:09:14;;;;;;;;;;;;;;;;;;5127232;28;19920;-68
2022/05/18 00:11:40;;;;;;;;;;;;;;;;;;5127363;28;19924;-68
2022/05/18 00:14:06;;;;;;;;;;;;;;;;;;5127269;28;19924;-68
2022/05/18 00:16:32;;;;;;;;;;;;;;;;;;5127128;28;19974;-68
2022/05/18 00:18:58;;;;;;;;;;;;;;;;;;5127086;28;19970;-68
2022/05/18 00:21:25;;;;;;;;;;;;;;;;;;5127296;28;19952;-68
2022/05/18 00:23:51;;;;;;;;;;;;;;;;;;5127199;28;19919;-68
2022/05/18 00:26:17;;;;;;;;;;;;;;;;;;5127191;28;19924;-68
2022/05/18 00:28:43;;;;;;;;;;;;;;;;;;5108431;28;19941;-67
2022/05/18 00:31:09;;;;;;;;;;;;;;;;;;5108570;28;19920;-68
2022/05/18 00:33:35;;;;;;;;;;;;;;;;;;5126918;28;19929;-68
2022/05/18 00:36:01;;;;;;;;;;;;;;;;;;5108583;28;19919;-68
2022/05/18 00:38:27;;;;;;;;;;;;;;;;;;5108391;28;19974;-69
2022/05/18 00:40:53;;;;;;;;;;;;;;;;;;5126978;28;19926;-68
2022/05/18 00:43:19;;;;;;;;;;;;;;;;;;5126614;28;19920;-68
2022/05/18 00:45:45;;;;;;;;;;;;;;;;;;5126766;28;19927;-68
2022/05/18 00:48:11;;;;;;;;;;;;;;;;;;5126544;28;19986;-68
2022/05/18 00:50:37;;;;;;;;;;;;;;;;;;5126559;28;19978;-68
2022/05/18 00:53:03;;;;;;;;;;;;;;;;;;5126504;28;19920;-68
2022/05/18 00:55:29;;;;;;;;;;;;;;;;;;5126567;28;19986;-68
2022/05/18 00:57:55;;;;;;;;;;;;;;;;;;5126102;28;19919;-68
2022/05/18 01:00:21;;;;;;;;;;;;;;;;;;5125835;28;19924;-68
2022/05/18 01:02:47;;;;;;;;;;;;;;;;;;5126152;28;19920;-68
2022/05/18 01:05:13;;;;;;;;;;;;;;;;;;5126490;28;19941;-69
2022/05/18 01:07:39;;;;;;;;;;;;;;;;;;5126143;28;19919;-69
2022/05/18 01:10:05;;;;;;;;;;;;;;;;;;5126360;28;19920;-68
2022/05/18 01:12:31;;;;;;;;;;;;;;;;;;5126104;28;19920;-68
2022/05/18 01:14:57;;;;;;;;;;;;;;;;;;5107753;28;19931;-68
2022/05/18 01:17:23;;;;;;;;;;;;;;;;;;5125984;28;19919;-68
2022/05/18 01:19:49;;;;;;;;;;;;;;;;;;5108044;28;19919;-68
2022/05/18 01:22:15;;;;;;;;;;;;;;;;;;5126023;28;19919;-68
2022/05/18 01:24:41;;;;;;;;;;;;;;;;;;5107766;28;20019;-68
2022/05/18 01:27:07;;;;;;;;;;;;;;;;;;5125980;28;19924;-68
2022/05/18 01:29:33;;;;;;;;;;;;;;;;;;5125964;28;20102;-68
2022/05/18 01:31:59;;;;;;;;;;;;;;;;;;5125917;28;20085;-68
2022/05/18 01:34:24;;;;;;;;;;;;;;;;;;5125760;28;20287;-68
2022/05/18 01:36:50;;;;;;;;;;;;;;;;;;5125719;28;20424;-67
2022/05/18 01:39:16;;;;;;;;;;;;;;;;;;5125999;28;20410;-68
2022/05/18 01:41:42;;;;;;;;;;;;;;;;;;5125952;28;19920;-68
2022/05/18 01:44:08;;;;;;;;;;;;;;;;;;5125659;28;19920;-68
2022/05/18 01:46:34;;;;;;;;;;;;;;;;;;5125516;28;19919;-68
2022/05/18 01:49:00;;;;;;;;;;;;;;;;;;5125910;28;19919;-69
2022/05/18 01:51:26;;;;;;;;;;;;;;;;;;5086679;28;19970;-68
2022/05/18 01:53:52;;;;;;;;;;;;;;;;;;5085079;28;19995;-68
2022/05/18 01:56:18;;;;;;;;;;;;;;;;;;5085003;28;19975;-68
2022/05/18 01:58:46;;;;;;;;;;;;;;;;;;5084796;28;20386;-68
2022/05/18 02:01:11;;;;;;;;;;;;;;;;;;5084731;28;19943;-69
2022/05/18 02:03:37;;;;;;;;;;;;;;;;;;5084848;28;19920;-69
2022/05/18 02:06:03;;;;;;;;;;;;;;;;;;5084874;28;20307;-69
2022/05/18 02:08:29;;;;;;;;;;;;;;;;;;5084781;28;19920;-68
2022/05/18 02:10:55;;;;;;;;;;;;;;;;;;5084976;28;19920;-68
2022/05/18 02:13:21;;;;;;;;;;;;;;;;;;5088330;28;19927;-68
2022/05/18 02:15:47;;;;;;;;;;;;;;;;;;5104374;28;19921;-68
2022/05/18 02:18:13;;;;;;;;;;;;;;;;;;5088782;28;19924;-67
2022/05/18 02:20:39;;;;;;;;;;;;;;;;;;5088763;28;19920;-68
2022/05/18 02:23:05;;;;;;;;;;;;;;;;;;5088489;28;19927;-68
2022/05/18 02:25:32;;;;;;;;;;;;;;;;;;5088720;28;19946;-67
2022/05/18 02:27:58;;;;;;;;;;;;;;;;;;5103910;28;19920;-68
2022/05/18 02:30:24;;;;;;;;;;;;;;;;;;5088469;28;20285;-68
2022/05/18 02:32:50;;;;;;;;;;;;;;;;;;5088365;28;19947;-68
2022/05/18 02:35:16;;;;;;;;;;;;;;;;;;5088542;28;20299;-69
2022/05/18 02:37:42;;;;;;;;;;;;;;;;;;5088424;28;19920;-69
2022/05/18 02:40:08;;;;;;;;;;;;;;;;;;5088339;28;19927;-68
2022/05/18 02:42:34;;;;;;;;;;;;;;;;;;5088264;28;19924;-68
2022/05/18 02:45:00;;;;;;;;;;;;;;;;;;5088067;28;19924;-67
2022/05/18 02:47:25;;;;;;;;;;;;;;;;;;5103790;28;19927;-68
2022/05/18 02:49:51;;;;;;;;;;;;;;;;;;5088291;28;20024;-69
2022/05/18 02:52:17;;;;;;;;;;;;;;;;;;5070022;28;19921;-68
2022/05/18 02:57:28;;;;;;;;;;;;;;;;;;5087873;28;19966;-68
2022/05/18 02:59:55;;;;;;;;;;;;;;;;;;5087590;28;19931;-68
2022/05/18 03:02:21;;;;;;;;;;;;;;;;;;5088083;28;19920;-69
2022/05/18 03:04:47;;;;;;;;;;;;;;;;;;5087642;28;19927;-68
2022/05/18 03:07:13;;;;;;;;;;;;;;;;;;5087923;28;19944;-68
2022/05/18 03:09:39;;;;;;;;;;;;;;;;;;5087707;28;19927;-68
2022/05/18 03:12:05;;;;;;;;;;;;;;;;;;5087730;28;19926;-68
2022/05/18 03:14:31;;;;;;;;;;;;;;;;;;5087557;28;19920;-68
2022/05/18 03:16:57;;;;;;;;;;;;;;;;;;5087679;28;19921;-68
2022/05/18 03:19:23;;;;;;;;;;;;;;;;;;5087649;28;19926;-69
2022/05/18 03:24:34;;;;;;;;;;;;;;;;;;5086716;28;19941;-68
2022/05/18 03:27:00;;;;;;;;;;;;;;;;;;5087547;28;19931;-68
2022/05/18 03:29:26;;;;;;;;;;;;;;;;;;5087408;28;19970;-68
2022/05/18 03:31:52;;;;;;;;;;;;;;;;;;5087345;28;19928;-68
2022/05/18 03:34:17;;;;;;;;;;;;;;;;;;5087145;28;20017;-69
2022/05/18 03:36:44;;;;;;;;;;;;;;;;;;5087147;28;19927;-68
2022/05/18 03:39:10;;;;;;;;;;;;;;;;;;5087339;28;19920;-69
2022/05/18 03:41:36;;;;;;;;;;;;;;;;;;5087082;28;19982;-69
2022/05/18 03:44:02;;;;;;;;;;;;;;;;;;5087167;28;19920;-68
2022/05/18 03:46:28;;;;;;;;;;;;;;;;;;5087261;28;19983;-68
2022/05/18 03:48:54;;;;;;;;;;;;;;;;;;5087198;28;20383;-68
2022/05/18 03:51:20;;;;;;;;;;;;;;;;;;5086978;28;19966;-68
2022/05/18 03:53:46;;;;;;;;;;;;;;;;;;5086851;28;19927;-70
2022/05/18 03:56:12;;;;;;;;;;;;;;;;;;5086773;28;19920;-68
2022/05/18 03:58:38;;;;;;;;;;;;;;;;;;5086651;28;19927;-69
2022/05/18 04:01:08;;;;;;;;;;;;;;;;;;5086695;28;20009;-69
2022/05/18 04:03:34;;;;;;;;;;;;;;;;;;5086705;28;19921;-68
2022/05/18 04:06:00;;;;;;;;;;;;;;;;;;5086925;28;19921;-68
2022/05/18 04:08:26;;;;;;;;;;;;;;;;;;5086738;28;19979;-69
2022/05/18 04:10:52;;;;;;;;;;;;;;;;;;5086675;28;19927;-69
2022/05/18 04:13:18;;;;;;;;;;;;;;;;;;5086407;28;19987;-69
2022/05/18 04:15:44;;;;;;;;;;;;;;;;;;5086481;28;19927;-69
2022/05/18 04:18:10;;;;;;;;;;;;;;;;;;5086536;28;19920;-69
2022/05/18 04:20:35;;;;;;;;;;;;;;;;;;5086466;28;19974;-69
2022/05/18 04:23:01;;;;;;;;;;;;;;;;;;5086322;28;20283;-68
2022/05/18 04:25:27;;;;;;;;;;;;;;;;;;5086334;28;19980;-68
2022/05/18 04:27:53;;;;;;;;;;;;;;;;;;5086320;28;19924;-69
2022/05/18 04:30:19;;;;;;;;;;;;;;;;;;5086320;28;19920;-69
2022/05/18 04:32:45;;;;;;;;;;;;;;;;;;5085853;28;19967;-68
2022/05/18 04:35:11;;;;;;;;;;;;;;;;;;5085026;28;19920;-68
2022/05/18 04:37:37;;;;;;;;;;;;;;;;;;5085979;28;19921;-68
2022/05/18 04:40:03;;;;;;;;;;;;;;;;;;5085928;28;19995;-68
2022/05/18 04:42:29;;;;;;;;;;;;;;;;;;5085921;28;20026;-69
2022/05/18 04:44:55;;;;;;;;;;;;;;;;;;5086022;28;19920;-69
2022/05/18 04:47:21;;;;;;;;;;;;;;;;;;5085868;28;19927;-69
2022/05/18 04:49:47;;;;;;;;;;;;;;;;;;5085812;28;19931;-69
2022/05/18 04:52:13;;;;;;;;;;;;;;;;;;5085832;28;19921;-69
2022/05/18 04:54:39;;;;;;;;;;;;;;;;;;5101543;28;19966;-69
2022/05/18 04:57:05;;;;;;;;;;;;;;;;;;5085625;28;19921;-69
2022/05/18 04:59:31;;;;;;;;;;;;;;;;;;5085436;28;19928;-69
2022/05/18 05:01:57;;;;;;;;;;;;;;;;;;5085389;28;19967;-69
2022/05/18 05:04:23;;;;;;;;;;;;;;;;;;5085413;28;19943;-69
2022/05/18 05:06:49;;;;;;;;;;;;;;;;;;5085610;28;19927;-69
2022/05/18 05:09:15;;;;;;;;;;;;;;;;;;5085454;28;19973;-69
2022/05/18 05:11:42;;;;;;;;;;;;;;;;;;5085547;28;20367;-69
2022/05/18 05:14:08;;;;;;;;;;;;;;;;;;5085346;28;19920;-68
2022/05/18 05:16:34;;;;;;;;;;;;;;;;;;5067278;28;19942;-68
2022/05/18 05:19:00;;;;;;;;;;;;;;;;;;5085276;28;20000;-69
2022/05/18 05:21:26;;;;;;;;;;;;;;;;;;5085323;28;19948;-69
2022/05/18 05:23:52;;;;;;;;;;;;;;;;;;5085205;28;19993;-69
2022/05/18 05:26:18;;;;;;;;;;;;;;;;;;5085140;28;19928;-68
2022/05/18 05:28:44;;;;;;;;;;;;;;;;;;5085188;28;20011;-68
2022/05/18 05:31:10;;;;;;;;;;;;;;;;;;5085334;28;20315;-69
2022/05/18 05:33:36;;;;;;;;;;;;;;;;;;5085127;28;19927;-69
2022/05/18 05:36:02;;;;;;;;;;;;;;;;;;5085204;28;19924;-70
2022/05/18 05:38:28;;;;;;;;;;;;;;;;;;5084951;28;19988;-69
2022/05/18 05:40:55;;;;;;;;;;;;;;;;;;5085110;28;19951;-69
2022/05/18 05:43:21;;;;;;;;;;;;;;;;;;5085098;28;19987;-69
2022/05/18 05:45:47;;;;;;;;;;;;;;;;;;5085062;28;19924;-69
2022/05/18 05:48:14;;;;;;;;;;;;;;;;;;5084553;28;19986;-69
2022/05/18 05:50:40;;;;;;;;;;;;;;;;;;5085011;28;19927;-69
2022/05/18 05:53:06;;;;;;;;;;;;;;;;;;5084902;28;19920;-69
2022/05/18 05:55:32;;;;;;;;;;;;;;;;;;5084878;28;19985;-69
2022/05/18 05:57:58;;;;;;;;;;;;;;;;;;5084803;28;20046;-69
2022/05/18 06:00:24;;;;;;;;;;;;;;;;;;5084728;28;19928;-69
2022/05/18 06:02:53;;;;;;;;;;;;;;;;;;5084778;28;19921;-68
2022/05/18 06:05:19;;;;;;;;;;;;;;;;;;5084986;28;19928;-68
2022/05/18 06:07:45;;;;;;;;;;;;;;;;;;5084674;28;19950;-69
2022/05/18 06:10:11;;;;;;;;;;;;;;;;;;5084387;28;19921;-69
2022/05/18 06:12:38;;;;;;;;;;;;;;;;;;5084746;28;19924;-69
2022/05/18 06:15:04;;;;;;;;;;;;;;;;;;5084694;28;19920;-68
2022/05/18 06:17:30;;;;;;;;;;;;;;;;;;5084720;28;19921;-69
2022/05/18 06:19:56;;;;;;;;;;;;;;;;;;5084835;28;19924;-69
2022/05/18 06:22:22;;;;;;;;;;;;;;;;;;5084680;28;20410;-69
2022/05/18 06:24:51;;;;;;;;;;;;;;;;;;5084594;28;19924;-69
2022/05/18 06:27:17;;;;;;;;;;;;;;;;;;5084800;28;19924;-69
2022/05/18 06:29:43;;;;;;;;;;;;;;;;;;5084534;28;19966;-69
2022/05/18 06:32:09;;;;;;;;;;;;;;;;;;5084653;28;19916;-68
2022/05/18 06:34:35;;;;;;;;;;;;;;;;;;5084156;28;20303;-68
2022/05/18 06:37:03;;;;;;;;;;;;;;;;;;5084257;28;20350;-68
2022/05/18 06:39:29;;;;;;;;;;;;;;;;;;5084308;28;19920;-68
2022/05/18 06:41:55;;;;;;;;;;;;;;;;;;5084566;28;19928;-68
2022/05/18 06:44:21;;;;;;;;;;;;;;;;;;5084372;28;19920;-68
2022/05/18 06:46:47;;;;;;;;;;;;;;;;;;5084534;28;20388;-69
2022/05/18 06:49:13;;;;;;;;;;;;;;;;;;5084491;28;19924;-69
2022/05/18 06:51:39;;;;;;;;;;;;;;;;;;5084395;28;19920;-70
2022/05/18 06:54:05;;;;;;;;;;;;;;;;;;5084285;28;19983;-69
2022/05/18 06:56:31;;;;;;;;;;;;;;;;;;5084160;28;19921;-69
2022/05/18 06:58:57;;;;;;;;;;;;;;;;;;5090522;28;19920;-68
2022/05/18 07:01:23;;;;;;;;;;;;;;;;;;5109696;28;19927;-67
2022/05/18 07:03:49;;;;;;;;;;;;;;;;;;5128568;28;19919;-68
2022/05/18 07:06:15;;;;;;;;;;;;;;;;;;5128638;28;19927;-69
2022/05/18 07:08:41;;;;;;;;;;;;;;;;;;5128545;28;19923;-68
2022/05/18 07:11:07;;;;;;;;;;;;;;;;;;5128618;28;19967;-69
2022/05/18 07:13:33;;;;;;;;;;;;;;;;;;5119689;28;19928;-69
2022/05/18 07:15:59;;;;;;;;;;;;;;;;;;5097973;28;19920;-68
2022/05/18 07:18:25;;;;;;;;;;;;;;;;;;5102909;28;20265;-67
2022/05/18 07:20:51;;;;;;;;;;;;;;;;;;5128546;28;19926;-68
2022/05/18 07:23:17;;;;;;;;;;;;;;;;;;5123510;28;19920;-69
2022/05/18 07:25:43;;;;;;;;;;;;;;;;;;5100045;28;19920;-69
2022/05/18 07:28:09;;;;;;;;;;;;;;;;;;5107227;28;19919;-69
2022/05/18 07:30:36;;;;;;;;;;;;;;;;;;5106374;28;19920;-69
2022/05/18 07:33:02;;;;;;;;;;;;;;;;;;5088196;28;19920;-69
2022/05/18 07:35:28;;;;;;;;;;;;;;;;;;5106584;28;20391;-70
2022/05/18 07:37:54;;;;;;;;;;;;;;;;;;5106998;28;19928;-69
2022/05/18 07:40:20;;;;;;;;;;;;;;;;;;5104874;28;19967;-69
2022/05/18 07:42:46;;;;;;;;;;;;;;;;;;5104236;28;20019;-69
2022/05/18 07:45:12;;;;;;;;;;;;;;;;;;5085330;28;19920;-70
2022/05/18 07:47:38;;;;;;;;;;;;;;;;;;5104316;28;20406;-70
2022/05/18 07:50:04;;;;;;;;;;;;;;;;;;5105643;28;19942;-69
2022/05/18 07:52:30;;;;;;;;;;;;;;;;;;5105213;28;19942;-69
2022/05/18 07:54:57;;;;;;;;;;;;;;;;;;5101318;28;19924;-70
2022/05/18 07:57:23;;;;;;;;;;;;;;;;;;5106692;28;19919;-70
2022/05/18 07:59:49;;;;;;;;;;;;;;;;;;5085114;28;19964;-69
2022/05/18 08:02:15;;;;;;;;;;;;;;;;;;5106704;28;19919;-69
2022/05/18 08:04:41;;;;;;;;;;;;;;;;;;5103798;28;19920;-69
2022/05/18 08:07:07;;;;;;;;;;;;;;;;;;5093157;28;19931;-69
2022/05/18 08:15:05;;;;;;;;;;;;;;;;;;5100574;28;19924;-69
2022/05/18 08:15:06;;;;;;;;;;;;;;;;;;5101754;28;20015;-69
2022/05/18 08:17:33;;;;;;;;;;;;;;;;;;5098691;28;19969;-69
2022/05/18 08:19:59;;;;;;;;;;;;;;;;;;5114380;28;19927;-69
2022/05/18 08:22:27;;;;;;;;;;;;;;;;;;5108372;28;19929;-69
2022/05/18 08:24:53;;;;;;;;;;;;;;;;;;5107040;28;20035;-68
2022/05/18 08:27:19;;;;;;;;;;;;;;;;;;5108484;28;19963;-69
2022/05/18 08:29:45;;;;;;;;;;;;;;;;;;5089782;28;20263;-69
2022/05/18 08:32:11;;;;;;;;;;;;;;;;;;5109560;28;20375;-69
2022/05/18 08:34:37;;;;;;;;;;;;;;;;;;5106230;28;19920;-69
2022/05/18 08:37:03;;;;;;;;;;;;;;;;;;5105822;28;19924;-69
2022/05/18 08:39:29;;;;;;;;;;;;;;;;;;5107951;28;19924;-70
2022/05/18 08:41:55;;;;;;;;;;;;;;;;;;5130438;27;19920;-69
2022/05/18 08:44:21;;;;;;;;;;;;;;;;;;5107002;28;19920;-68
2022/05/18 08:46:47;;;;;;;;;;;;;;;;;;5107987;28;20317;-69
2022/05/18 08:49:13;;;;;;;;;;;;;;;;;;5107111;28;20283;-69
2022/05/18 08:51:40;;;;;;;;;;;;;;;;;;5107636;28;19931;-69
2022/05/18 08:54:06;;;;;;;;;;;;;;;;;;5110848;28;19983;-69
2022/05/18 08:56:32;;;;;;;;;;;;;;;;;;5106260;28;19982;-69
2022/05/18 08:58:58;;;;;;;;;;;;;;;;;;5112049;28;19923;-69
2022/05/18 09:01:24;;;;;;;;;;;;;;;;;;5111870;28;19928;-69
2022/05/18 09:03:50;;;;;;;;;;;;;;;;;;5105747;28;19920;-69
2022/05/18 09:06:16;;;;;;;;;;;;;;;;;;5108824;28;19920;-68
2022/05/18 09:08:42;;;;;;;;;;;;;;;;;;5099099;28;19939;-68
2022/05/18 09:11:08;;;;;;;;;;;;;;;;;;5107832;28;19927;-69
2022/05/18 09:13:34;;;;;;;;;;;;;;;;;;5104932;28;19928;-69
2022/05/18 09:16:00;;;;;;;;;;;;;;;;;;5078625;28;19934;-64
2022/05/18 09:18:26;;;;;;;;;;;;;;;;;;5109322;28;19919;-69
2022/05/18 09:20:52;;;;;;;;;;;;;;;;;;5127615;27;19926;-68
2022/05/18 09:23:19;;;;;;;;;;;;;;;;;;5122937;27;19973;-66
2022/05/18 09:25:45;;;;;;;;;;;;;;;;;;5110724;28;19924;-61
2022/05/18 09:28:11;;;;;;;;;;;;;;;;;;5110007;28;19920;-63
2022/05/18 09:30:38;;;;;;;;;;;;;;;;;;5108707;28;19920;-62
2022/05/18 09:33:06;;;;;;;;;;;;;;;;;;5113864;28;19924;-62
2022/05/18 09:35:32;;;;;;;;;;;;;;;;;;5105259;28;19920;-63
2022/05/18 09:37:59;;;;;;;;;;;;;;;;;;5107115;28;19974;-63
2022/05/18 09:40:25;;;;;;;;;;;;;;;;;;5107657;28;19959;-64
2022/05/18 09:42:51;;;;;;;;;;;;;;;;;;5080189;28;19950;-65
2022/05/18 09:45:17;;;;;;;;;;;;;;;;;;5099609;28;20007;-65
2022/05/18 09:47:44;;;;;;;;;;;;;;;;;;5120395;28;19926;-65
2022/05/18 09:50:11;;;;;;;;;;;;;;;;;;5121854;28;19920;-66
2022/05/18 09:52:37;;;;;;;;;;;;;;;;;;5125914;28;19924;-65
2022/05/18 09:55:03;;;;;;;;;;;;;;;;;;5107863;28;19979;-64
2022/05/18 09:57:29;;;;;;;;;;;;;;;;;;5125833;28;19920;-64
2022/05/18 09:59:56;;;;;;;;;;;;;;;;;;5108264;28;19928;-64
2022/05/18 10:07:52;;;;;;;;;;;;;;;;;;5098988;28;19942;-64
2022/05/18 10:10:18;;;;;;;;;;;;;;;;;;5098174;28;20387;-77
2022/05/18 10:12:46;;;;;;;;;;;;;;;;;;5114486;28;19924;-64
2022/05/18 10:15:12;;;;;;;;;;;;;;;;;;5104488;28;19919;-63
2022/05/18 10:17:38;;;;;;;;;;;;;;;;;;5107117;28;19959;-63
2022/05/18 10:20:06;;;;;;;;;;;;;;;;;;5101358;28;19920;-67
2022/05/18 10:22:33;;;;;;;;;;;;;;;;;;5107965;28;19935;-65
2022/05/18 10:24:59;;;;;;;;;;;;;;;;;;5128568;28;19980;-66
2022/05/18 10:27:25;;;;;;;;;;;;;;;;;;5117504;28;19924;-67
2022/05/18 10:29:51;;;;;;;;;;;;;;;;;;5105571;28;20184;-67
2022/05/18 10:32:17;;;;;;;;;;;;;;;;;;5116272;28;19924;-66
2022/05/18 10:34:43;;;;;;;;;;;;;;;;;;5131208;27;19931;-62
2022/05/18 10:37:09;;;;;;;;;;;;;;;;;;5133288;27;19980;-61
2022/05/18 10:39:36;;;;;;;;;;;;;;;;;;5112698;28;20010;-68
2022/05/18 10:42:02;;;;;;;;;;;;;;;;;;5104465;28;19920;-69
2022/05/18 10:44:28;;;;;;;;;;;;;;;;;;5088262;28;19927;-70
2022/05/18 10:46:54;;;;;;;;;;;;;;;;;;5105720;28;19927;-69
2022/05/18 10:49:20;;;;;;;;;;;;;;;;;;5089978;28;19927;-70
2022/05/18 10:51:46;;;;;;;;;;;;;;;;;;5090345;28;19920;-68
2022/05/18 10:54:12;;;;;;;;;;;;;;;;;;5108598;28;19920;-70
2022/05/18 10:56:38;;;;;;;;;;;;;;;;;;5104699;28;19935;-69
2022/05/18 10:59:04;;;;;;;;;;;;;;;;;;5087919;28;19920;-69
2022/05/18 11:01:30;;;;;;;;;;;;;;;;;;5088016;28;19927;-69
2022/05/18 11:03:56;;;;;;;;;;;;;;;;;;5088020;28;19964;-70
2022/05/18 11:06:22;;;;;;;;;;;;;;;;;;5088007;28;20356;-69
2022/05/18 11:08:48;;;;;;;;;;;;;;;;;;5087929;28;19920;-69
2022/05/18 11:11:14;;;;;;;;;;;;;;;;;;5087470;28;19927;-70
2022/05/18 11:13:40;;;;;;;;;;;;;;;;;;5087630;28;19925;-69
2022/05/18 11:16:06;;;;;;;;;;;;;;;;;;5087221;28;19931;-69
2022/05/18 11:18:32;;;;;;;;;;;;;;;;;;5104877;28;19923;-70
2022/05/18 11:20:58;;;;;;;;;;;;;;;;;;5102251;28;19920;-69
2022/05/18 11:23:24;;;;;;;;;;;;;;;;;;5107845;28;20225;-69
2022/05/18 11:25:50;;;;;;;;;;;;;;;;;;5107856;28;19920;-69
2022/05/18 11:28:16;;;;;;;;;;;;;;;;;;5107826;28;19931;-70
2022/05/18 11:30:42;;;;;;;;;;;;;;;;;;5107768;28;19927;-69
2022/05/18 11:33:08;;;;;;;;;;;;;;;;;;5107492;28;19920;-69
2022/05/18 11:35:34;;;;;;;;;;;;;;;;;;5089511;28;19920;-69
2022/05/18 11:38:00;;;;;;;;;;;;;;;;;;5085957;28;19924;-68
2022/05/18 11:40:27;;;;;;;;;;;;;;;;;;5087206;28;19932;-69
2022/05/18 11:42:53;;;;;;;;;;;;;;;;;;5069176;28;20002;-69
2022/05/18 11:45:19;;;;;;;;;;;;;;;;;;5086695;28;20005;-70
2022/05/18 11:47:45;;;;;;;;;;;;;;;;;;5087091;28;19983;-69
2022/05/18 11:50:11;;;;;;;;;;;;;;;;;;5069219;28;19987;-69
2022/05/18 11:52:37;;;;;;;;;;;;;;;;;;5069191;28;19992;-69
2022/05/18 11:55:02;;;;;;;;;;;;;;;;;;5086553;28;19973;-70
2022/05/18 11:57:28;;;;;;;;;;;;;;;;;;5086883;28;19973;-69
2022/05/18 11:59:57;;;;;;;;;;;;;;;;;;5086484;28;19983;-69
2022/05/18 12:02:23;;;;;;;;;;;;;;;;;;5086752;28;19921;-70
2022/05/18 12:04:49;;;;;;;;;;;;;;;;;;5086657;28;19920;-69
2022/05/18 12:07:15;;;;;;;;;;;;;;;;;;5086832;28;19920;-69
2022/05/18 12:09:42;;;;;;;;;;;;;;;;;;5086796;28;19920;-69
2022/05/18 12:12:08;;;;;;;;;;;;;;;;;;5086877;28;19927;-69
2022/05/18 12:14:34;;;;;;;;;;;;;;;;;;5086611;28;19927;-68
2022/05/18 12:17:00;;;;;;;;;;;;;;;;;;5086538;28;19920;-69
2022/05/18 12:19:26;;;;;;;;;;;;;;;;;;5068444;28;19920;-68
2022/05/18 12:21:52;;;;;;;;;;;;;;;;;;5086369;28;19920;-69
2022/05/18 12:24:18;;;;;;;;;;;;;;;;;;5085923;28;19920;-69
2022/05/18 12:26:44;;;;;;;;;;;;;;;;;;5101922;28;20005;-69
2022/05/18 12:29:10;;;;;;;;;;;;;;;;;;5086373;28;19920;-69
2022/05/18 12:31:36;;;;;;;;;;;;;;;;;;5086367;28;19963;-70
2022/05/18 12:34:02;;;;;;;;;;;;;;;;;;5085948;28;19974;-70
2022/05/18 12:36:28;;;;;;;;;;;;;;;;;;5086250;28;19983;-68
2022/05/18 12:38:54;;;;;;;;;;;;;;;;;;5085838;28;20339;-69
2022/05/18 12:41:21;;;;;;;;;;;;;;;;;;5085862;28;19976;-69
2022/05/18 12:43:47;;;;;;;;;;;;;;;;;;5067827;28;19924;-69
2022/05/18 12:46:13;;;;;;;;;;;;;;;;;;5086055;28;19970;-69
2022/05/18 12:48:39;;;;;;;;;;;;;;;;;;5085987;28;20292;-68
2022/05/18 12:51:05;;;;;;;;;;;;;;;;;;5085846;28;20404;-69
2022/05/18 12:53:31;;;;;;;;;;;;;;;;;;5067523;28;19920;-69
2022/05/18 12:55:58;;;;;;;;;;;;;;;;;;5084862;28;19988;-69
2022/05/18 12:58:24;;;;;;;;;;;;;;;;;;5084891;28;19928;-70
2022/05/18 13:00:50;;;;;;;;;;;;;;;;;;5067296;28;19921;-68
2022/05/18 13:03:16;;;;;;;;;;;;;;;;;;5067476;28;19924;-68
2022/05/18 13:05:42;;;;;;;;;;;;;;;;;;5085708;28;19976;-69
2022/05/18 13:08:08;;;;;;;;;;;;;;;;;;5085495;28;19921;-69
2022/05/18 13:10:34;;;;;;;;;;;;;;;;;;5085559;28;19927;-69
2022/05/18 13:13:00;;;;;;;;;;;;;;;;;;5067481;28;19921;-69
2022/05/18 13:15:27;;;;;;;;;;;;;;;;;;5085417;28;19931;-69
2022/05/18 13:17:52;;;;;;;;;;;;;;;;;;5085261;28;19950;-69
2022/05/18 13:20:19;;;;;;;;;;;;;;;;;;5085490;28;19920;-69
2022/05/18 13:22:45;;;;;;;;;;;;;;;;;;5067171;28;19981;-69
2022/05/18 13:25:11;;;;;;;;;;;;;;;;;;5085508;28;19920;-68
2022/05/18 13:27:37;;;;;;;;;;;;;;;;;;5085406;28;19924;-69
2022/05/18 13:30:03;;;;;;;;;;;;;;;;;;5086126;28;19935;-69
2022/05/18 13:32:29;;;;;;;;;;;;;;;;;;5085364;28;19920;-69
2022/05/18 13:34:55;;;;;;;;;;;;;;;;;;5085346;28;19924;-69
2022/05/18 13:37:21;;;;;;;;;;;;;;;;;;5067296;28;20425;-69
2022/05/18 13:39:47;;;;;;;;;;;;;;;;;;5085193;28;19920;-69
2022/05/18 13:42:13;;;;;;;;;;;;;;;;;;5085107;28;19927;-69
2022/05/18 13:44:39;;;;;;;;;;;;;;;;;;5085138;28;19920;-69
2022/05/18 13:47:05;;;;;;;;;;;;;;;;;;5090651;28;19932;-69
2022/05/18 13:49:31;;;;;;;;;;;;;;;;;;5105455;28;19932;-69
2022/05/18 13:51:57;;;;;;;;;;;;;;;;;;5105227;28;19950;-69
2022/05/18 13:54:25;;;;;;;;;;;;;;;;;;5105447;28;20479;-69
2022/05/18 13:56:51;;;;;;;;;;;;;;;;;;5105141;28;19935;-68
2022/05/18 13:59:17;;;;;;;;;;;;;;;;;;5086879;28;19920;-69
2022/05/18 14:01:45;;;;;;;;;;;;;;;;;;5105178;28;19963;-70
2022/05/18 14:04:11;;;;;;;;;;;;;;;;;;5105262;28;20053;-68
2022/05/18 14:06:37;;;;;;;;;;;;;;;;;;5105123;28;19924;-69
2022/05/18 14:09:03;;;;;;;;;;;;;;;;;;5108555;28;19924;-68
2022/05/18 14:11:29;;;;;;;;;;;;;;;;;;5109273;28;19920;-69
2022/05/18 14:13:55;;;;;;;;;;;;;;;;;;5083392;28;19920;-69
2022/05/18 14:16:21;;;;;;;;;;;;;;;;;;5071275;28;19921;-69
2022/05/18 14:18:47;;;;;;;;;;;;;;;;;;5089010;28;19932;-69
2022/05/18 14:21:13;;;;;;;;;;;;;;;;;;5088785;28;20204;-69
2022/05/18 14:23:40;;;;;;;;;;;;;;;;;;5088967;28;20198;-69
2022/05/18 14:26:06;;;;;;;;;;;;;;;;;;5088803;28;19920;-69
2022/05/18 14:28:32;;;;;;;;;;;;;;;;;;5070471;28;20404;-69
2022/05/18 14:30:58;;;;;;;;;;;;;;;;;;5069948;28;20391;-69
2022/05/18 14:33:27;;;;;;;;;;;;;;;;;;5088363;28;19920;-69
2022/05/18 14:35:53;;;;;;;;;;;;;;;;;;5088553;28;19924;-69
2022/05/18 14:38:19;;;;;;;;;;;;;;;;;;5088727;28;19974;-69
2022/05/18 14:40:45;;;;;;;;;;;;;;;;;;5088602;28;19966;-69
2022/05/18 14:43:11;;;;;;;;;;;;;;;;;;5088182;28;19920;-67
2022/05/18 14:45:37;;;;;;;;;;;;;;;;;;5088471;28;19927;-68
2022/05/18 14:48:03;;;;;;;;;;;;;;;;;;5087751;28;20417;-68
2022/05/18 14:50:29;;;;;;;;;;;;;;;;;;5088215;28;19980;-68
2022/05/18 14:52:56;;;;;;;;;;;;;;;;;;5088181;28;19921;-68
2022/05/18 14:55:22;;;;;;;;;;;;;;;;;;5079928;28;19920;-69
2022/05/18 14:57:48;;;;;;;;;;;;;;;;;;5104598;28;20375;-74
2022/05/18 15:00:14;;;;;;;;;;;;;;;;;;5075024;28;19924;-62
2022/05/18 15:02:40;;;;;;;;;;;;;;;;;;5109609;28;19920;-68
2022/05/18 15:05:06;;;;;;;;;;;;;;;;;;5093374;28;19930;-62
2022/05/18 15:07:32;;;;;;;;;;;;;;;;;;5112819;28;19991;-62
2022/05/18 15:09:59;;;;;;;;;;;;;;;;;;5105437;28;19920;-63
2022/05/18 15:12:25;;;;;;;;;;;;;;;;;;5102370;28;19927;-64
2022/05/18 15:14:51;;;;;;;;;;;;;;;;;;5111002;28;19982;-64
2022/05/18 15:17:17;;;;;;;;;;;;;;;;;;5108240;28;19935;-62
2022/05/18 15:19:43;;;;;;;;;;;;;;;;;;5110529;28;19932;-62
2022/05/18 15:22:09;;;;;;;;;;;;;;;;;;5108987;28;19927;-69
2022/05/18 15:24:36;;;;;;;;;;;;;;;;;;5134424;27;19920;-67
2022/05/18 15:27:02;;;;;;;;;;;;;;;;;;5110456;28;19920;-68
2022/05/18 15:29:28;;;;;;;;;;;;;;;;;;5128183;27;20003;-68
2022/05/18 15:31:54;;;;;;;;;;;;;;;;;;5125078;27;19923;-68
2022/05/18 15:34:20;;;;;;;;;;;;;;;;;;5125888;27;19956;-69
2022/05/18 15:36:46;;;;;;;;;;;;;;;;;;5128441;27;20292;-67
2022/05/18 15:39:12;;;;;;;;;;;;;;;;;;5108534;28;19970;-70
2022/05/18 15:41:38;;;;;;;;;;;;;;;;;;5126480;27;19947;-70
2022/05/18 15:44:04;;;;;;;;;;;;;;;;;;5108095;28;19984;-69
2022/05/18 15:46:30;;;;;;;;;;;;;;;;;;5091368;28;19959;-68
2022/05/18 15:48:56;;;;;;;;;;;;;;;;;;5111223;28;20374;-72
2022/05/18 15:51:22;;;;;;;;;;;;;;;;;;5102579;28;19953;-66
2022/05/18 15:53:50;;;;;;;;;;;;;;;;;;5109681;28;19920;-68
2022/05/18 15:56:18;;;;;;;;;;;;;;;;;;5090321;28;19959;-62
2022/05/18 15:58:44;;;;;;;;;;;;;;;;;;5110283;28;19956;-63
2022/05/18 16:01:10;;;;;;;;;;;;;;;;;;5095872;28;20041;-62
2022/05/18 16:03:36;;;;;;;;;;;;;;;;;;5107272;28;19924;-62
2022/05/18 16:06:02;;;;;;;;;;;;;;;;;;5109439;28;19946;-63
2022/05/18 16:08:28;;;;;;;;;;;;;;;;;;5105508;28;19920;-63
2022/05/18 16:10:54;;;;;;;;;;;;;;;;;;5101609;28;20007;-61
2022/05/18 16:13:20;;;;;;;;;;;;;;;;;;5105649;28;19932;-63
2022/05/18 16:15:46;;;;;;;;;;;;;;;;;;5102409;28;19973;-70
2022/05/18 16:18:12;;;;;;;;;;;;;;;;;;5097418;28;20295;-69
2022/05/18 16:20:38;;;;;;;;;;;;;;;;;;5110091;28;19931;-69
2022/05/18 16:23:04;;;;;;;;;;;;;;;;;;5128823;27;19956;-69
2022/05/18 16:25:30;;;;;;;;;;;;;;;;;;5110600;28;19919;-70
2022/05/18 16:27:56;;;;;;;;;;;;;;;;;;5109356;28;19923;-70
2022/05/18 16:30:22;;;;;;;;;;;;;;;;;;5108110;28;20349;-70
2022/05/18 16:32:48;;;;;;;;;;;;;;;;;;5090413;28;20383;-70
2022/05/18 16:35:14;;;;;;;;;;;;;;;;;;5104908;28;19942;-69
2022/05/18 16:37:40;;;;;;;;;;;;;;;;;;5106712;28;19920;-69
2022/05/18 16:40:06;;;;;;;;;;;;;;;;;;5105195;28;19924;-69
2022/05/18 16:42:32;;;;;;;;;;;;;;;;;;5090068;28;19926;-69
2022/05/18 16:44:58;;;;;;;;;;;;;;;;;;5126501;27;19927;-69
2022/05/18 16:47:24;;;;;;;;;;;;;;;;;;5109992;28;19923;-69
2022/05/18 16:49:50;;;;;;;;;;;;;;;;;;5105597;28;19988;-69
2022/05/18 16:52:16;;;;;;;;;;;;;;;;;;5104738;28;19920;-69